createdAt,value
2016-12-23T00:00:04.603Z,5.5
2016-12-23T00:05:04.753Z,5.5
2016-12-23T00:10:04.118Z,5.5
2016-12-23T00:15:04.778Z,5.4
2016-12-23T00:20:04.228Z,5.4
2016-12-23T00:25:04.378Z,5.0
2016-12-23T00:30:04.549Z,5.0
2016-12-23T00:35:05.049Z,5.0
2016-12-23T00:40:04.738Z,5.0
2016-12-23T00:45:04.367Z,4.8
2016-12-23T00:50:04.471Z,4.5
2016-12-23T00:55:04.735Z,4.5
2016-12-23T01:00:04.762Z,4.5
2016-12-23T01:05:04.188Z,4.3
2016-12-23T01:10:04.741Z,4.0
2016-12-23T01:15:04.126Z,4.0
2016-12-23T01:20:04.607Z,4.0
2016-12-23T01:25:04.018Z,4.0
2016-12-23T01:30:04.386Z,3.7
2016-12-23T01:35:04.499Z,3.7
2016-12-23T01:40:04.774Z,3.7
2016-12-23T01:45:04.714Z,3.7
2016-12-23T01:50:04.220Z,3.7
2016-12-23T01:55:04.439Z,3.7
2016-12-23T02:00:04.878Z,3.7
2016-12-23T02:05:04.423Z,3.7
2016-12-23T02:10:03.980Z,4.0
2016-12-23T02:15:04.602Z,3.7
2016-12-23T02:20:04.517Z,3.7
2016-12-23T02:25:04.062Z,3.7
2016-12-23T02:30:04.492Z,4.0
2016-12-23T02:35:04.733Z,4.0
2016-12-23T02:40:04.383Z,4.0
2016-12-23T02:45:04.874Z,4.0
2016-12-23T02:50:04.873Z,4.0
2016-12-23T02:55:04.944Z,4.0
2016-12-23T03:00:04.713Z,4.0
2016-12-23T03:05:03.992Z,4.0
2016-12-23T03:10:03.997Z,4.0
2016-12-23T03:15:04.440Z,3.7
2016-12-23T03:20:04.488Z,3.7
2016-12-23T03:25:03.815Z,4.0
2016-12-23T03:30:04.420Z,3.7
2016-12-23T03:35:04.937Z,3.7
2016-12-23T03:40:04.543Z,3.7
2016-12-23T03:45:04.814Z,3.7
2016-12-23T03:50:04.136Z,3.7
2016-12-23T03:55:04.738Z,3.7
2016-12-23T04:00:04.579Z,3.7
2016-12-23T04:05:04.798Z,3.7
2016-12-23T04:10:04.232Z,3.7
2016-12-23T04:15:04.543Z,3.7
2016-12-23T04:20:04.577Z,3.7
2016-12-23T04:25:03.909Z,3.7
2016-12-23T04:30:04.552Z,3.7
2016-12-23T04:35:04.038Z,3.7
2016-12-23T04:40:03.964Z,4.0
2016-12-23T04:45:04.194Z,3.7
2016-12-23T04:50:04.521Z,3.7
2016-12-23T04:55:04.281Z,3.7
2016-12-23T05:00:04.522Z,3.7
2016-12-23T05:05:04.978Z,3.7
2016-12-23T05:10:04.796Z,3.7
2016-12-23T05:15:04.423Z,3.7
2016-12-23T05:20:04.283Z,3.7
2016-12-23T05:25:03.915Z,3.7
2016-12-23T05:30:04.728Z,3.7
2016-12-23T05:35:03.914Z,4.0
2016-12-23T05:40:04.545Z,3.7
2016-12-23T05:45:03.981Z,4.0
2016-12-23T05:50:04.298Z,3.7
2016-12-23T05:55:04.520Z,4.0
2016-12-23T06:00:04.831Z,3.7
2016-12-23T06:05:04.193Z,3.7
2016-12-23T06:10:04.969Z,3.7
2016-12-23T06:15:04.518Z,3.7
2016-12-23T06:20:04.258Z,3.7
2016-12-23T06:25:04.617Z,3.7
2016-12-23T06:30:04.973Z,3.7
2016-12-23T06:35:04.682Z,3.7
2016-12-23T06:40:04.181Z,3.7
2016-12-23T06:45:04.371Z,3.7
2016-12-23T06:50:04.955Z,3.7
2016-12-23T06:55:03.985Z,3.7
2016-12-23T07:00:03.999Z,3.7
2016-12-23T07:05:04.833Z,3.5
2016-12-23T07:10:04.519Z,3.5
2016-12-23T07:15:04.735Z,3.2
2016-12-23T07:20:03.983Z,3.5
2016-12-23T07:25:04.289Z,3.5
2016-12-23T07:30:04.782Z,3.5
2016-12-23T07:35:04.044Z,3.5
2016-12-23T07:40:04.562Z,3.5
2016-12-23T07:45:03.934Z,3.5
2016-12-23T07:50:04.162Z,3.5
2016-12-23T07:55:04.149Z,3.5
2016-12-23T08:00:03.930Z,3.7
2016-12-23T08:05:04.090Z,3.7
2016-12-23T08:10:04.127Z,3.7
2016-12-23T08:15:04.292Z,4.0
2016-12-23T08:20:04.417Z,4.0
2016-12-23T08:25:04.818Z,4.0
2016-12-23T08:30:04.805Z,4.0
2016-12-23T08:35:04.019Z,4.3
2016-12-23T08:40:04.358Z,4.3
2016-12-23T08:45:03.920Z,4.5
2016-12-23T08:50:04.514Z,4.5
2016-12-23T08:55:04.599Z,4.5
2016-12-23T09:00:04.171Z,4.5
2016-12-23T09:05:04.741Z,4.5
2016-12-23T09:10:04.443Z,4.5
2016-12-23T09:15:04.343Z,5.0
2016-12-23T09:20:04.753Z,5.0
2016-12-23T09:25:04.604Z,5.0
2016-12-23T09:30:03.959Z,5.3
2016-12-23T09:35:04.776Z,5.0
2016-12-23T09:40:04.748Z,5.0
2016-12-23T09:45:04.859Z,5.3
2016-12-23T09:50:04.214Z,5.4
2016-12-23T09:55:04.407Z,5.5
2016-12-23T10:00:04.467Z,5.5
2016-12-23T10:05:04.924Z,5.5
2016-12-23T10:10:04.831Z,5.8
2016-12-23T10:15:04.732Z,5.9
2016-12-23T10:20:04.147Z,6.0
2016-12-23T10:25:04.212Z,6.1
2016-12-23T10:30:04.286Z,6.4
2016-12-23T10:35:04.169Z,6.6
2016-12-23T10:40:04.662Z,6.5
2016-12-23T10:45:03.837Z,6.5
2016-12-23T10:50:04.026Z,6.4
2016-12-23T10:55:04.579Z,6.4
2016-12-23T11:00:04.329Z,6.5
2016-12-23T11:05:04.325Z,6.6
2016-12-23T11:10:04.353Z,6.6
2016-12-23T11:15:04.615Z,6.9
2016-12-23T11:20:04.566Z,7.0
2016-12-23T11:25:04.834Z,7.1
2016-12-23T11:30:04.638Z,7.0
2016-12-23T11:35:04.681Z,7.1
2016-12-23T11:40:04.431Z,7.0
2016-12-23T11:45:03.968Z,7.1
2016-12-23T11:50:04.042Z,7.1
2016-12-23T11:55:04.570Z,7.4
2016-12-23T12:00:04.479Z,7.4
2016-12-23T12:05:04.390Z,7.5
2016-12-23T12:10:04.422Z,7.6
2016-12-23T12:15:04.261Z,7.6
2016-12-23T12:20:04.035Z,7.6
2016-12-23T12:25:04.645Z,7.9
2016-12-23T12:30:04.734Z,7.9
2016-12-23T12:35:04.708Z,7.9
2016-12-23T12:40:04.722Z,8.0
2016-12-23T12:45:04.274Z,8.0
2016-12-23T12:50:03.948Z,8.0
2016-12-23T12:55:03.976Z,8.0
2016-12-23T13:00:04.223Z,8.0
2016-12-23T13:05:04.639Z,8.0
2016-12-23T13:10:04.434Z,8.0
2016-12-23T13:15:04.819Z,8.0
2016-12-23T13:20:04.238Z,8.0
2016-12-23T13:25:04.676Z,8.0
2016-12-23T13:30:04.424Z,8.0
2016-12-23T13:35:04.596Z,8.1
2016-12-23T13:40:04.863Z,8.0
2016-12-23T13:45:04.952Z,8.0
2016-12-23T13:50:03.958Z,8.0
2016-12-23T13:55:03.808Z,8.0
2016-12-23T14:00:04.718Z,7.9
2016-12-23T14:05:04.778Z,8.0
2016-12-23T14:10:04.699Z,7.9
2016-12-23T14:15:04.189Z,7.6
2016-12-23T14:20:04.186Z,7.5
2016-12-23T14:25:03.998Z,7.4
2016-12-23T14:30:03.986Z,7.1
2016-12-23T14:35:04.777Z,7.1
2016-12-23T14:40:04.565Z,7.0
2016-12-23T14:45:04.503Z,7.0
2016-12-23T14:50:04.657Z,7.0
2016-12-23T14:55:04.163Z,7.0
2016-12-23T15:00:04.433Z,7.0
2016-12-23T15:05:04.265Z,7.0
2016-12-23T15:10:04.536Z,7.0
2016-12-23T15:15:04.464Z,7.0
2016-12-23T15:20:04.516Z,6.9
2016-12-23T15:25:04.491Z,6.9
2016-12-23T15:30:03.860Z,6.6
2016-12-23T15:35:04.515Z,6.5
2016-12-23T15:40:04.555Z,6.4
2016-12-23T15:45:04.089Z,6.4
2016-12-23T15:50:03.943Z,6.4
2016-12-23T15:55:04.059Z,6.4
2016-12-23T16:00:04.344Z,6.1
2016-12-23T16:05:04.292Z,6.1
2016-12-23T16:10:04.164Z,6.1
2016-12-23T16:15:04.132Z,6.1
2016-12-23T16:20:04.889Z,6.1
2016-12-23T16:25:03.998Z,6.1
2016-12-23T16:30:04.869Z,6.0
2016-12-23T16:35:04.865Z,6.0
2016-12-23T16:40:04.594Z,5.9
2016-12-23T16:45:04.743Z,5.8
2016-12-23T16:50:04.722Z,5.5
2016-12-23T16:55:03.945Z,5.4
2016-12-23T17:00:04.818Z,5.8
2016-12-23T17:05:04.638Z,5.8
2016-12-23T17:10:04.147Z,5.8
2016-12-23T17:15:04.846Z,5.5
2016-12-23T17:20:04.209Z,5.4
2016-12-23T17:25:04.639Z,5.4
2016-12-23T17:30:04.278Z,5.3
2016-12-23T17:35:03.884Z,5.3
2016-12-23T17:40:04.515Z,5.3
2016-12-23T17:45:04.144Z,5.3
2016-12-23T17:50:04.260Z,5.3
2016-12-23T17:55:04.621Z,5.3
2016-12-23T18:00:04.283Z,5.0
2016-12-23T18:05:04.476Z,5.0
2016-12-23T18:10:04.233Z,5.0
2016-12-23T18:15:04.559Z,5.0
2016-12-23T18:20:04.819Z,5.0
2016-12-23T18:25:04.700Z,4.8
2016-12-23T18:30:04.676Z,4.5
2016-12-23T18:35:04.788Z,4.5
2016-12-23T18:40:04.638Z,4.5
2016-12-23T18:45:04.821Z,4.5
2016-12-23T18:50:04.228Z,4.5
2016-12-23T18:55:04.434Z,4.5
2016-12-23T19:00:04.264Z,4.5
2016-12-23T19:05:04.791Z,4.5
2016-12-23T19:10:04.690Z,4.5
2016-12-23T19:15:04.545Z,4.5
2016-12-23T19:20:04.519Z,4.5
2016-12-23T19:25:04.361Z,4.8
2016-12-23T19:30:04.053Z,4.8
2016-12-23T19:35:03.953Z,4.8
2016-12-23T19:40:04.915Z,5.0
2016-12-23T19:45:04.074Z,4.8
2016-12-23T19:50:03.990Z,4.8
2016-12-23T19:55:04.270Z,4.8
2016-12-23T20:00:03.981Z,4.8
2016-12-23T20:05:04.755Z,4.5
2016-12-23T20:10:04.067Z,4.8
2016-12-23T20:15:04.722Z,4.8
2016-12-23T20:20:04.550Z,4.8
2016-12-23T20:25:04.602Z,4.8
2016-12-23T20:30:04.053Z,5.0
2016-12-23T20:35:04.213Z,5.0
2016-12-23T20:40:04.746Z,5.0
2016-12-23T20:45:03.857Z,5.0
2016-12-23T20:50:04.023Z,5.0
2016-12-23T20:55:04.052Z,5.0
2016-12-23T21:00:04.091Z,5.0
2016-12-23T21:05:04.459Z,5.0
2016-12-23T21:10:04.290Z,5.0
2016-12-23T21:15:04.571Z,5.0
2016-12-23T21:20:04.746Z,5.0
2016-12-23T21:25:03.880Z,5.0
2016-12-23T21:30:04.411Z,5.0
2016-12-23T21:35:04.660Z,5.0
2016-12-23T21:40:04.484Z,5.0
2016-12-23T21:45:03.959Z,5.0
2016-12-23T21:50:04.337Z,5.0
2016-12-23T21:55:04.803Z,5.0
2016-12-23T22:00:04.086Z,5.0
2016-12-23T22:05:04.604Z,5.0
2016-12-23T22:10:04.053Z,5.3
2016-12-23T22:15:04.590Z,5.3
2016-12-23T22:20:04.501Z,5.3
2016-12-23T22:25:04.685Z,5.3
2016-12-23T22:30:04.366Z,5.4
2016-12-23T22:35:04.673Z,5.4
2016-12-23T22:40:04.625Z,5.8
2016-12-23T22:45:04.141Z,5.9
2016-12-23T22:50:04.702Z,6.0
2016-12-23T22:55:03.964Z,6.0
2016-12-23T23:00:04.476Z,6.0
2016-12-23T23:05:04.782Z,6.0
2016-12-23T23:10:04.405Z,5.8
2016-12-23T23:15:04.320Z,5.4
2016-12-23T23:20:04.195Z,5.3
2016-12-23T23:25:04.453Z,5.0
2016-12-23T23:30:04.739Z,5.0
2016-12-23T23:35:04.750Z,5.0
2016-12-23T23:40:04.642Z,5.0
2016-12-23T23:45:04.030Z,5.0
2016-12-23T23:50:04.261Z,5.0
2016-12-23T23:55:04.455Z,5.0
